sensor_id;sensor_type;location;lat;lon;timestamp;P1;durP1;ratioP1;P2;durP2;ratioP2
58238;SDS011;44037;55.638;37.356;2024-02-04T00:02:10;12.60;;;6.28;;
58238;SDS011;44037;55.638;37.356;2024-02-04T00:04:41;11.35;;;6.95;;
58238;SDS011;44037;55.638;37.356;2024-02-04T00:07:08;11.38;;;6.68;;
58238;SDS011;44037;55.638;37.356;2024-02-04T00:09:35;9.30;;;6.18;;
58238;SDS011;44037;55.638;37.356;2024-02-04T00:12:03;10.93;;;6.10;;
58238;SDS011;44037;55.638;37.356;2024-02-04T00:14:31;10.13;;;6.80;;
58238;SDS011;44037;55.638;37.356;2024-02-04T00:16:59;9.82;;;6.18;;
58238;SDS011;44037;55.638;37.356;2024-02-04T00:19:26;12.55;;;7.68;;
58238;SDS011;44037;55.638;37.356;2024-02-04T00:21:55;9.80;;;5.80;;
58238;SDS011;44037;55.638;37.356;2024-02-04T00:24:22;11.65;;;6.07;;
58238;SDS011;44037;55.638;37.356;2024-02-04T00:26:49;10.88;;;6.28;;
58238;SDS011;44037;55.638;37.356;2024-02-04T00:29:17;9.15;;;6.07;;
58238;SDS011;44037;55.638;37.356;2024-02-04T00:31:44;9.13;;;5.72;;
58238;SDS011;44037;55.638;37.356;2024-02-04T00:34:11;10.25;;;6.97;;
58238;SDS011;44037;55.638;37.356;2024-02-04T00:36:38;9.20;;;6.10;;
58238;SDS011;44037;55.638;37.356;2024-02-04T00:39:07;8.20;;;5.45;;
58238;SDS011;44037;55.638;37.356;2024-02-04T00:41:37;9.88;;;6.00;;
58238;SDS011;44037;55.638;37.356;2024-02-04T00:44:04;8.63;;;6.00;;
58238;SDS011;44037;55.638;37.356;2024-02-04T00:46:31;9.10;;;6.10;;
58238;SDS011;44037;55.638;37.356;2024-02-04T00:48:59;10.90;;;7.00;;
58238;SDS011;44037;55.638;37.356;2024-02-04T00:51:26;9.07;;;5.63;;
58238;SDS011;44037;55.638;37.356;2024-02-04T00:53:53;9.48;;;5.70;;
58238;SDS011;44037;55.638;37.356;2024-02-04T00:56:22;9.80;;;6.10;;
58238;SDS011;44037;55.638;37.356;2024-02-04T00:58:49;8.00;;;5.47;;
58238;SDS011;44037;55.638;37.356;2024-02-04T01:01:17;7.80;;;5.85;;
58238;SDS011;44037;55.638;37.356;2024-02-04T01:03:45;9.27;;;6.05;;
58238;SDS011;44037;55.638;37.356;2024-02-04T01:06:12;9.07;;;6.00;;
58238;SDS011;44037;55.638;37.356;2024-02-04T01:08:40;11.38;;;5.88;;
58238;SDS011;44037;55.638;37.356;2024-02-04T01:11:07;9.48;;;5.47;;
58238;SDS011;44037;55.638;37.356;2024-02-04T01:13:35;9.38;;;5.63;;
58238;SDS011;44037;55.638;37.356;2024-02-04T01:16:03;7.80;;;4.85;;
58238;SDS011;44037;55.638;37.356;2024-02-04T01:18:31;10.70;;;5.78;;
58238;SDS011;44037;55.638;37.356;2024-02-04T01:20:58;8.50;;;5.85;;
58238;SDS011;44037;55.638;37.356;2024-02-04T01:23:26;7.95;;;5.60;;
58238;SDS011;44037;55.638;37.356;2024-02-04T01:25:53;8.07;;;5.30;;
58238;SDS011;44037;55.638;37.356;2024-02-04T01:28:20;9.68;;;6.13;;
58238;SDS011;44037;55.638;37.356;2024-02-04T01:30:49;6.97;;;4.70;;
58238;SDS011;44037;55.638;37.356;2024-02-04T01:33:17;8.07;;;4.97;;
58238;SDS011;44037;55.638;37.356;2024-02-04T01:35:44;8.93;;;5.40;;
58238;SDS011;44037;55.638;37.356;2024-02-04T01:38:11;6.45;;;4.18;;
58238;SDS011;44037;55.638;37.356;2024-02-04T01:40:39;9.23;;;5.03;;
58238;SDS011;44037;55.638;37.356;2024-02-04T01:43:07;7.13;;;4.88;;
58238;SDS011;44037;55.638;37.356;2024-02-04T01:45:35;7.57;;;5.13;;
58238;SDS011;44037;55.638;37.356;2024-02-04T01:48:04;7.85;;;4.63;;
58238;SDS011;44037;55.638;37.356;2024-02-04T01:50:32;9.20;;;5.22;;
58238;SDS011;44037;55.638;37.356;2024-02-04T01:52:59;7.28;;;4.20;;
58238;SDS011;44037;55.638;37.356;2024-02-04T01:55:27;7.38;;;4.28;;
58238;SDS011;44037;55.638;37.356;2024-02-04T01:57:55;7.57;;;4.50;;
58238;SDS011;44037;55.638;37.356;2024-02-04T02:00:22;7.53;;;4.32;;
58238;SDS011;44037;55.638;37.356;2024-02-04T02:02:49;5.70;;;3.97;;
58238;SDS011;44037;55.638;37.356;2024-02-04T02:05:20;6.82;;;4.38;;
58238;SDS011;44037;55.638;37.356;2024-02-04T02:07:47;7.05;;;4.25;;
58238;SDS011;44037;55.638;37.356;2024-02-04T02:10:17;7.10;;;4.18;;
58238;SDS011;44037;55.638;37.356;2024-02-04T02:12:47;7.75;;;4.43;;
58238;SDS011;44037;55.638;37.356;2024-02-04T02:15:20;5.70;;;3.47;;
58238;SDS011;44037;55.638;37.356;2024-02-04T02:17:51;6.30;;;3.85;;
58238;SDS011;44037;55.638;37.356;2024-02-04T02:20:26;4.75;;;3.10;;
58238;SDS011;44037;55.638;37.356;2024-02-04T02:23:03;6.95;;;3.88;;
58238;SDS011;44037;55.638;37.356;2024-02-04T02:25:36;6.03;;;3.17;;
58238;SDS011;44037;55.638;37.356;2024-02-04T02:28:04;4.28;;;2.63;;
58238;SDS011;44037;55.638;37.356;2024-02-04T02:30:32;6.32;;;3.00;;
58238;SDS011;44037;55.638;37.356;2024-02-04T02:32:59;3.80;;;3.03;;
58238;SDS011;44037;55.638;37.356;2024-02-04T02:35:27;5.68;;;3.05;;
58238;SDS011;44037;55.638;37.356;2024-02-04T02:37:55;4.18;;;2.42;;
58238;SDS011;44037;55.638;37.356;2024-02-04T02:40:26;4.82;;;2.47;;
58238;SDS011;44037;55.638;37.356;2024-02-04T02:42:58;3.40;;;2.20;;
58238;SDS011;44037;55.638;37.356;2024-02-04T02:45:29;3.70;;;2.30;;
58238;SDS011;44037;55.638;37.356;2024-02-04T02:47:57;3.45;;;2.30;;
58238;SDS011;44037;55.638;37.356;2024-02-04T02:50:25;5.18;;;2.88;;
58238;SDS011;44037;55.638;37.356;2024-02-04T02:52:53;2.63;;;1.85;;
58238;SDS011;44037;55.638;37.356;2024-02-04T02:55:20;3.08;;;1.95;;
58238;SDS011;44037;55.638;37.356;2024-02-04T02:57:47;2.63;;;1.85;;
58238;SDS011;44037;55.638;37.356;2024-02-04T03:00:16;2.83;;;1.70;;
58238;SDS011;44037;55.638;37.356;2024-02-04T03:02:44;2.28;;;1.60;;
58238;SDS011;44037;55.638;37.356;2024-02-04T03:05:12;2.42;;;1.88;;
58238;SDS011;44037;55.638;37.356;2024-02-04T03:07:39;2.33;;;1.50;;
58238;SDS011;44037;55.638;37.356;2024-02-04T03:10:08;2.10;;;1.20;;
58238;SDS011;44037;55.638;37.356;2024-02-04T03:12:35;2.25;;;1.30;;
58238;SDS011;44037;55.638;37.356;2024-02-04T03:15:03;2.03;;;1.50;;
58238;SDS011;44037;55.638;37.356;2024-02-04T03:17:33;1.90;;;1.20;;
58238;SDS011;44037;55.638;37.356;2024-02-04T03:20:00;2.28;;;1.00;;
58238;SDS011;44037;55.638;37.356;2024-02-04T03:22:29;2.10;;;1.40;;
58238;SDS011;44037;55.638;37.356;2024-02-04T03:24:57;1.60;;;1.10;;
58238;SDS011;44037;55.638;37.356;2024-02-04T03:27:24;1.17;;;0.85;;
58238;SDS011;44037;55.638;37.356;2024-02-04T03:29:51;1.58;;;1.08;;
58238;SDS011;44037;55.638;37.356;2024-02-04T03:32:18;0.98;;;0.77;;
58238;SDS011;44037;55.638;37.356;2024-02-04T03:34:47;1.35;;;1.05;;
58238;SDS011;44037;55.638;37.356;2024-02-04T03:37:15;0.90;;;0.80;;
58238;SDS011;44037;55.638;37.356;2024-02-04T03:39:43;1.33;;;0.90;;
58238;SDS011;44037;55.638;37.356;2024-02-04T03:42:10;1.40;;;0.90;;
58238;SDS011;44037;55.638;37.356;2024-02-04T03:44:37;1.48;;;1.00;;
58238;SDS011;44037;55.638;37.356;2024-02-04T03:47:04;2.10;;;1.08;;
58238;SDS011;44037;55.638;37.356;2024-02-04T03:49:32;1.10;;;0.80;;
58238;SDS011;44037;55.638;37.356;2024-02-04T03:52:00;1.02;;;0.80;;
58238;SDS011;44037;55.638;37.356;2024-02-04T03:54:28;1.13;;;0.80;;
58238;SDS011;44037;55.638;37.356;2024-02-04T03:56:55;1.08;;;0.75;;
58238;SDS011;44037;55.638;37.356;2024-02-04T03:59:22;0.98;;;0.60;;
58238;SDS011;44037;55.638;37.356;2024-02-04T04:01:50;1.95;;;1.00;;
58238;SDS011;44037;55.638;37.356;2024-02-04T04:04:19;1.50;;;0.80;;
58238;SDS011;44037;55.638;37.356;2024-02-04T04:06:46;2.30;;;0.75;;
58238;SDS011;44037;55.638;37.356;2024-02-04T04:09:16;1.48;;;0.90;;
58238;SDS011;44037;55.638;37.356;2024-02-04T04:11:43;1.05;;;0.73;;
58238;SDS011;44037;55.638;37.356;2024-02-04T04:14:13;2.15;;;0.68;;
58238;SDS011;44037;55.638;37.356;2024-02-04T04:16:40;1.00;;;0.80;;
58238;SDS011;44037;55.638;37.356;2024-02-04T04:19:07;0.85;;;0.70;;
58238;SDS011;44037;55.638;37.356;2024-02-04T04:21:34;0.98;;;0.60;;
58238;SDS011;44037;55.638;37.356;2024-02-04T04:24:03;3.00;;;1.88;;
58238;SDS011;44037;55.638;37.356;2024-02-04T04:26:32;1.38;;;0.80;;
58238;SDS011;44037;55.638;37.356;2024-02-04T04:29:00;1.90;;;0.70;;
58238;SDS011;44037;55.638;37.356;2024-02-04T04:31:27;0.85;;;0.68;;
58238;SDS011;44037;55.638;37.356;2024-02-04T04:33:55;0.77;;;0.60;;
58238;SDS011;44037;55.638;37.356;2024-02-04T04:36:22;1.10;;;0.60;;
58238;SDS011;44037;55.638;37.356;2024-02-04T04:38:49;0.65;;;0.65;;
58238;SDS011;44037;55.638;37.356;2024-02-04T04:41:16;1.10;;;0.80;;
58238;SDS011;44037;55.638;37.356;2024-02-04T04:43:45;1.75;;;0.98;;
58238;SDS011;44037;55.638;37.356;2024-02-04T04:46:13;1.00;;;0.65;;
58238;SDS011;44037;55.638;37.356;2024-02-04T04:48:40;1.48;;;1.10;;
58238;SDS011;44037;55.638;37.356;2024-02-04T04:51:07;2.78;;;0.80;;
58238;SDS011;44037;55.638;37.356;2024-02-04T04:53:35;0.70;;;0.70;;
58238;SDS011;44037;55.638;37.356;2024-02-04T04:56:03;1.30;;;0.90;;
58238;SDS011;44037;55.638;37.356;2024-02-04T04:58:32;1.15;;;0.70;;
58238;SDS011;44037;55.638;37.356;2024-02-04T05:01:00;0.70;;;0.60;;
58238;SDS011;44037;55.638;37.356;2024-02-04T05:03:27;2.20;;;0.80;;
58238;SDS011;44037;55.638;37.356;2024-02-04T05:05:55;5.78;;;2.97;;
58238;SDS011;44037;55.638;37.356;2024-02-04T05:08:22;2.13;;;1.33;;
58238;SDS011;44037;55.638;37.356;2024-02-04T05:10:49;1.90;;;0.93;;
58238;SDS011;44037;55.638;37.356;2024-02-04T05:13:17;1.02;;;0.80;;
58238;SDS011;44037;55.638;37.356;2024-02-04T05:15:44;3.08;;;1.20;;
58238;SDS011;44037;55.638;37.356;2024-02-04T05:18:13;1.70;;;0.70;;
58238;SDS011;44037;55.638;37.356;2024-02-04T05:20:40;1.88;;;0.73;;
58238;SDS011;44037;55.638;37.356;2024-02-04T05:23:08;0.90;;;0.60;;
58238;SDS011;44037;55.638;37.356;2024-02-04T05:25:36;1.05;;;0.55;;
58238;SDS011;44037;55.638;37.356;2024-02-04T05:28:03;2.05;;;0.40;;
58238;SDS011;44037;55.638;37.356;2024-02-04T05:30:31;1.38;;;0.82;;
58238;SDS011;44037;55.638;37.356;2024-02-04T05:32:58;1.48;;;0.73;;
58238;SDS011;44037;55.638;37.356;2024-02-04T05:35:27;2.03;;;0.60;;
58238;SDS011;44037;55.638;37.356;2024-02-04T05:37:54;1.15;;;0.50;;
58238;SDS011;44037;55.638;37.356;2024-02-04T05:40:21;2.58;;;0.60;;
58238;SDS011;44037;55.638;37.356;2024-02-04T05:42:49;0.63;;;0.60;;
58238;SDS011;44037;55.638;37.356;2024-02-04T05:45:16;1.25;;;0.57;;
58238;SDS011;44037;55.638;37.356;2024-02-04T05:47:44;1.58;;;0.50;;
58238;SDS011;44037;55.638;37.356;2024-02-04T05:50:11;0.40;;;0.40;;
58238;SDS011;44037;55.638;37.356;2024-02-04T05:52:40;0.52;;;0.40;;
58238;SDS011;44037;55.638;37.356;2024-02-04T05:55:09;1.75;;;0.47;;
58238;SDS011;44037;55.638;37.356;2024-02-04T05:57:37;1.17;;;0.40;;
58238;SDS011;44037;55.638;37.356;2024-02-04T06:00:04;0.63;;;0.43;;
58238;SDS011;44037;55.638;37.356;2024-02-04T06:02:33;0.60;;;0.30;;
58238;SDS011;44037;55.638;37.356;2024-02-04T06:05:00;1.85;;;0.40;;
58238;SDS011;44037;55.638;37.356;2024-02-04T06:07:30;0.52;;;0.35;;
58238;SDS011;44037;55.638;37.356;2024-02-04T06:09:58;0.70;;;0.40;;
58238;SDS011;44037;55.638;37.356;2024-02-04T06:12:30;0.55;;;0.30;;
58238;SDS011;44037;55.638;37.356;2024-02-04T06:14:57;0.38;;;0.30;;
58238;SDS011;44037;55.638;37.356;2024-02-04T06:17:26;3.28;;;0.57;;
58238;SDS011;44037;55.638;37.356;2024-02-04T06:19:53;0.70;;;0.30;;
58238;SDS011;44037;55.638;37.356;2024-02-04T06:22:22;0.52;;;0.35;;
58238;SDS011;44037;55.638;37.356;2024-02-04T06:24:50;2.67;;;0.63;;
58238;SDS011;44037;55.638;37.356;2024-02-04T06:27:18;10.38;;;1.50;;
58238;SDS011;44037;55.638;37.356;2024-02-04T06:29:46;0.93;;;0.93;;
58238;SDS011;44037;55.638;37.356;2024-02-04T06:32:13;0.95;;;0.50;;
58238;SDS011;44037;55.638;37.356;2024-02-04T06:34:41;1.30;;;0.40;;
58238;SDS011;44037;55.638;37.356;2024-02-04T06:37:08;0.52;;;0.40;;
58238;SDS011;44037;55.638;37.356;2024-02-04T06:39:36;4.20;;;1.15;;
58238;SDS011;44037;55.638;37.356;2024-02-04T06:42:04;1.48;;;0.38;;
58238;SDS011;44037;55.638;37.356;2024-02-04T06:44:33;2.25;;;0.70;;
58238;SDS011;44037;55.638;37.356;2024-02-04T06:47:00;1.02;;;0.50;;
58238;SDS011;44037;55.638;37.356;2024-02-04T06:49:27;0.50;;;0.30;;
58238;SDS011;44037;55.638;37.356;2024-02-04T06:51:55;1.33;;;0.40;;
58238;SDS011;44037;55.638;37.356;2024-02-04T06:54:23;0.90;;;0.50;;
58238;SDS011;44037;55.638;37.356;2024-02-04T06:56:50;2.13;;;0.63;;
58238;SDS011;44037;55.638;37.356;2024-02-04T06:59:18;0.63;;;0.50;;
58238;SDS011;44037;55.638;37.356;2024-02-04T07:01:47;1.33;;;0.52;;
58238;SDS011;44037;55.638;37.356;2024-02-04T07:04:14;0.63;;;0.50;;
58238;SDS011;44037;55.638;37.356;2024-02-04T07:06:41;2.05;;;0.70;;
58238;SDS011;44037;55.638;37.356;2024-02-04T07:09:09;0.50;;;0.47;;
58238;SDS011;44037;55.638;37.356;2024-02-04T07:11:36;1.52;;;0.50;;
58238;SDS011;44037;55.638;37.356;2024-02-04T07:14:05;1.33;;;0.60;;
58238;SDS011;44037;55.638;37.356;2024-02-04T07:16:35;1.15;;;0.70;;
58238;SDS011;44037;55.638;37.356;2024-02-04T07:19:03;4.43;;;0.70;;
58238;SDS011;44037;55.638;37.356;2024-02-04T07:21:31;2.00;;;0.77;;
58238;SDS011;44037;55.638;37.356;2024-02-04T07:23:58;8.05;;;1.35;;
58238;SDS011;44037;55.638;37.356;2024-02-04T07:26:25;1.48;;;0.70;;
58238;SDS011;44037;55.638;37.356;2024-02-04T07:28:53;1.20;;;0.60;;
58238;SDS011;44037;55.638;37.356;2024-02-04T07:31:20;0.95;;;0.77;;
58238;SDS011;44037;55.638;37.356;2024-02-04T07:33:48;1.85;;;0.75;;
58238;SDS011;44037;55.638;37.356;2024-02-04T07:36:16;2.83;;;0.65;;
58238;SDS011;44037;55.638;37.356;2024-02-04T07:38:44;6.03;;;0.98;;
58238;SDS011;44037;55.638;37.356;2024-02-04T07:41:13;2.08;;;0.60;;
58238;SDS011;44037;55.638;37.356;2024-02-04T07:43:41;1.17;;;0.52;;
58238;SDS011;44037;55.638;37.356;2024-02-04T07:46:09;1.38;;;0.80;;
58238;SDS011;44037;55.638;37.356;2024-02-04T07:48:36;1.83;;;0.57;;
58238;SDS011;44037;55.638;37.356;2024-02-04T07:51:04;2.22;;;0.70;;
58238;SDS011;44037;55.638;37.356;2024-02-04T07:53:32;5.20;;;0.90;;
58238;SDS011;44037;55.638;37.356;2024-02-04T07:56:01;3.10;;;0.93;;
58238;SDS011;44037;55.638;37.356;2024-02-04T07:58:32;2.08;;;0.70;;
58238;SDS011;44037;55.638;37.356;2024-02-04T08:00:59;2.83;;;0.88;;
58238;SDS011;44037;55.638;37.356;2024-02-04T08:03:27;4.50;;;1.00;;
58238;SDS011;44037;55.638;37.356;2024-02-04T08:05:54;2.95;;;1.00;;
58238;SDS011;44037;55.638;37.356;2024-02-04T08:08:21;4.65;;;1.15;;
58238;SDS011;44037;55.638;37.356;2024-02-04T08:10:51;2.70;;;1.13;;
58238;SDS011;44037;55.638;37.356;2024-02-04T08:13:18;5.32;;;1.45;;
58238;SDS011;44037;55.638;37.356;2024-02-04T08:15:45;3.80;;;1.58;;
58238;SDS011;44037;55.638;37.356;2024-02-04T08:18:12;2.47;;;1.73;;
58238;SDS011;44037;55.638;37.356;2024-02-04T08:20:40;3.72;;;1.27;;
58238;SDS011;44037;55.638;37.356;2024-02-04T08:23:07;3.45;;;1.45;;
58238;SDS011;44037;55.638;37.356;2024-02-04T08:25:34;3.13;;;1.42;;
58238;SDS011;44037;55.638;37.356;2024-02-04T08:28:04;3.30;;;1.52;;
58238;SDS011;44037;55.638;37.356;2024-02-04T08:30:31;2.55;;;1.50;;
58238;SDS011;44037;55.638;37.356;2024-02-04T08:32:59;4.47;;;1.63;;
58238;SDS011;44037;55.638;37.356;2024-02-04T08:35:26;6.55;;;2.05;;
58238;SDS011;44037;55.638;37.356;2024-02-04T08:37:54;11.73;;;5.85;;
58238;SDS011;44037;55.638;37.356;2024-02-04T08:40:21;4.20;;;1.85;;
58238;SDS011;44037;55.638;37.356;2024-02-04T08:42:49;4.05;;;1.70;;
58238;SDS011;44037;55.638;37.356;2024-02-04T08:45:17;5.57;;;2.25;;
58238;SDS011;44037;55.638;37.356;2024-02-04T08:47:45;6.13;;;1.95;;
58238;SDS011;44037;55.638;37.356;2024-02-04T08:50:12;8.48;;;2.60;;
58238;SDS011;44037;55.638;37.356;2024-02-04T08:52:40;9.15;;;2.20;;
58238;SDS011;44037;55.638;37.356;2024-02-04T08:55:07;7.53;;;1.90;;
58238;SDS011;44037;55.638;37.356;2024-02-04T08:57:34;4.45;;;1.60;;
58238;SDS011;44037;55.638;37.356;2024-02-04T09:00:02;7.10;;;1.88;;
58238;SDS011;44037;55.638;37.356;2024-02-04T09:02:33;7.20;;;1.52;;
58238;SDS011;44037;55.638;37.356;2024-02-04T09:05:01;4.22;;;1.40;;
58238;SDS011;44037;55.638;37.356;2024-02-04T09:07:29;6.60;;;1.50;;
58238;SDS011;44037;55.638;37.356;2024-02-04T09:09:57;5.35;;;2.13;;
58238;SDS011;44037;55.638;37.356;2024-02-04T09:12:24;6.28;;;1.75;;
58238;SDS011;44037;55.638;37.356;2024-02-04T09:14:51;6.20;;;2.42;;
58238;SDS011;44037;55.638;37.356;2024-02-04T09:17:19;6.70;;;1.85;;
58238;SDS011;44037;55.638;37.356;2024-02-04T09:19:48;9.63;;;3.83;;
58238;SDS011;44037;55.638;37.356;2024-02-04T09:22:15;5.57;;;1.70;;
58238;SDS011;44037;55.638;37.356;2024-02-04T09:24:42;4.38;;;1.50;;
58238;SDS011;44037;55.638;37.356;2024-02-04T09:27:09;4.90;;;1.42;;
58238;SDS011;44037;55.638;37.356;2024-02-04T09:29:37;7.82;;;1.75;;
58238;SDS011;44037;55.638;37.356;2024-02-04T09:32:04;7.22;;;2.05;;
58238;SDS011;44037;55.638;37.356;2024-02-04T09:34:32;8.02;;;2.10;;
58238;SDS011;44037;55.638;37.356;2024-02-04T09:37:01;5.43;;;1.42;;
58238;SDS011;44037;55.638;37.356;2024-02-04T09:39:29;7.22;;;1.40;;
58238;SDS011;44037;55.638;37.356;2024-02-04T09:41:57;9.18;;;2.28;;
58238;SDS011;44037;55.638;37.356;2024-02-04T09:44:25;8.48;;;1.73;;
58238;SDS011;44037;55.638;37.356;2024-02-04T09:46:53;5.63;;;2.13;;
58238;SDS011;44037;55.638;37.356;2024-02-04T09:49:24;6.97;;;1.77;;
58238;SDS011;44037;55.638;37.356;2024-02-04T09:51:52;9.70;;;1.80;;
58238;SDS011;44037;55.638;37.356;2024-02-04T09:54:21;7.80;;;2.20;;
58238;SDS011;44037;55.638;37.356;2024-02-04T09:56:50;5.82;;;2.30;;
58238;SDS011;44037;55.638;37.356;2024-02-04T09:59:17;5.45;;;2.30;;
58238;SDS011;44037;55.638;37.356;2024-02-04T10:01:45;9.38;;;2.30;;
58238;SDS011;44037;55.638;37.356;2024-02-04T10:04:13;5.88;;;1.65;;
58238;SDS011;44037;55.638;37.356;2024-02-04T10:06:40;7.00;;;1.85;;
58238;SDS011;44037;55.638;37.356;2024-02-04T10:09:07;6.55;;;1.70;;
58238;SDS011;44037;55.638;37.356;2024-02-04T10:11:36;6.10;;;1.70;;
58238;SDS011;44037;55.638;37.356;2024-02-04T10:14:03;8.02;;;2.55;;
58238;SDS011;44037;55.638;37.356;2024-02-04T10:16:32;7.07;;;2.40;;
58238;SDS011;44037;55.638;37.356;2024-02-04T10:19:02;9.23;;;1.70;;
58238;SDS011;44037;55.638;37.356;2024-02-04T10:21:30;6.38;;;2.05;;
58238;SDS011;44037;55.638;37.356;2024-02-04T10:23:57;5.93;;;2.03;;
58238;SDS011;44037;55.638;37.356;2024-02-04T10:26:28;7.35;;;1.95;;
58238;SDS011;44037;55.638;37.356;2024-02-04T10:28:58;5.82;;;1.75;;
58238;SDS011;44037;55.638;37.356;2024-02-04T10:31:26;5.57;;;1.55;;
58238;SDS011;44037;55.638;37.356;2024-02-04T10:33:54;5.47;;;2.38;;
58238;SDS011;44037;55.638;37.356;2024-02-04T10:36:22;7.63;;;2.17;;
58238;SDS011;44037;55.638;37.356;2024-02-04T10:38:49;5.13;;;1.60;;
58238;SDS011;44037;55.638;37.356;2024-02-04T10:41:17;11.02;;;2.17;;
58238;SDS011;44037;55.638;37.356;2024-02-04T10:43:44;5.90;;;1.83;;
58238;SDS011;44037;55.638;37.356;2024-02-04T10:46:15;7.35;;;2.50;;
58238;SDS011;44037;55.638;37.356;2024-02-04T10:48:47;9.15;;;2.22;;
58238;SDS011;44037;55.638;37.356;2024-02-04T10:51:19;9.23;;;2.45;;
58238;SDS011;44037;55.638;37.356;2024-02-04T10:53:51;7.63;;;2.53;;
58238;SDS011;44037;55.638;37.356;2024-02-04T10:56:21;8.13;;;2.20;;
58238;SDS011;44037;55.638;37.356;2024-02-04T10:58:51;5.80;;;1.55;;
58238;SDS011;44037;55.638;37.356;2024-02-04T11:01:22;6.43;;;1.90;;
58238;SDS011;44037;55.638;37.356;2024-02-04T11:03:53;4.40;;;1.95;;
58238;SDS011;44037;55.638;37.356;2024-02-04T11:06:21;7.15;;;1.67;;
58238;SDS011;44037;55.638;37.356;2024-02-04T11:08:50;4.28;;;1.70;;
58238;SDS011;44037;55.638;37.356;2024-02-04T11:11:19;4.47;;;1.58;;
58238;SDS011;44037;55.638;37.356;2024-02-04T11:13:47;3.45;;;2.00;;
58238;SDS011;44037;55.638;37.356;2024-02-04T11:16:19;4.68;;;1.75;;
58238;SDS011;44037;55.638;37.356;2024-02-04T11:19:01;6.47;;;1.83;;
58238;SDS011;44037;55.638;37.356;2024-02-04T11:21:53;3.95;;;1.35;;
58238;SDS011;44037;55.638;37.356;2024-02-04T11:24:44;5.00;;;1.40;;
58238;SDS011;44037;55.638;37.356;2024-02-04T11:27:31;4.22;;;1.40;;
58238;SDS011;44037;55.638;37.356;2024-02-04T11:29:59;7.97;;;1.85;;
58238;SDS011;44037;55.638;37.356;2024-02-04T11:32:27;4.15;;;2.00;;
58238;SDS011;44037;55.638;37.356;2024-02-04T11:34:55;4.30;;;1.80;;
58238;SDS011;44037;55.638;37.356;2024-02-04T11:37:26;3.15;;;1.48;;
58238;SDS011;44037;55.638;37.356;2024-02-04T11:39:54;3.35;;;1.35;;
58238;SDS011;44037;55.638;37.356;2024-02-04T11:42:24;8.50;;;4.40;;
58238;SDS011;44037;55.638;37.356;2024-02-04T11:45:05;3.90;;;0.82;;
58238;SDS011;44037;55.638;37.356;2024-02-04T11:47:36;2.78;;;0.43;;
58238;SDS011;44037;55.638;37.356;2024-02-04T11:50:04;1.23;;;0.50;;
58238;SDS011;44037;55.638;37.356;2024-02-04T11:52:33;1.38;;;0.45;;
58238;SDS011;44037;55.638;37.356;2024-02-04T11:55:00;1.80;;;0.65;;
58238;SDS011;44037;55.638;37.356;2024-02-04T11:57:29;2.10;;;0.60;;
58238;SDS011;44037;55.638;37.356;2024-02-04T11:59:57;2.92;;;0.70;;
58238;SDS011;44037;55.638;37.356;2024-02-04T12:02:25;1.60;;;0.50;;
58238;SDS011;44037;55.638;37.356;2024-02-04T12:04:55;1.63;;;1.15;;
58238;SDS011;44037;55.638;37.356;2024-02-04T12:07:22;5.60;;;0.90;;
58238;SDS011;44037;55.638;37.356;2024-02-04T12:09:50;3.53;;;0.80;;
58238;SDS011;44037;55.638;37.356;2024-02-04T12:12:17;5.60;;;1.50;;
58238;SDS011;44037;55.638;37.356;2024-02-04T12:14:45;4.50;;;1.00;;
58238;SDS011;44037;55.638;37.356;2024-02-04T12:17:13;0.82;;;0.63;;
58238;SDS011;44037;55.638;37.356;2024-02-04T12:19:41;1.63;;;0.90;;
58238;SDS011;44037;55.638;37.356;2024-02-04T12:22:09;2.92;;;1.20;;
58238;SDS011;44037;55.638;37.356;2024-02-04T12:24:37;4.88;;;1.85;;
58238;SDS011;44037;55.638;37.356;2024-02-04T12:27:05;6.55;;;1.73;;
58238;SDS011;44037;55.638;37.356;2024-02-04T12:29:35;2.40;;;0.70;;
58238;SDS011;44037;55.638;37.356;2024-02-04T12:32:02;2.67;;;0.70;;
58238;SDS011;44037;55.638;37.356;2024-02-04T12:34:31;1.10;;;0.50;;
58238;SDS011;44037;55.638;37.356;2024-02-04T12:36:59;1.23;;;0.50;;
58238;SDS011;44037;55.638;37.356;2024-02-04T12:39:29;2.92;;;0.70;;
58238;SDS011;44037;55.638;37.356;2024-02-04T12:41:59;3.45;;;1.20;;
58238;SDS011;44037;55.638;37.356;2024-02-04T12:44:26;2.08;;;0.68;;
58238;SDS011;44037;55.638;37.356;2024-02-04T12:46:54;2.67;;;0.70;;
58238;SDS011;44037;55.638;37.356;2024-02-04T12:49:22;2.15;;;0.70;;
58238;SDS011;44037;55.638;37.356;2024-02-04T12:51:50;2.42;;;0.50;;
58238;SDS011;44037;55.638;37.356;2024-02-04T12:54:19;3.28;;;0.95;;
58238;SDS011;44037;55.638;37.356;2024-02-04T12:56:48;1.38;;;0.80;;
58238;SDS011;44037;55.638;37.356;2024-02-04T12:59:27;2.47;;;0.90;;
58238;SDS011;44037;55.638;37.356;2024-02-04T13:01:56;4.07;;;0.85;;
58238;SDS011;44037;55.638;37.356;2024-02-04T13:04:26;6.30;;;3.15;;
58238;SDS011;44037;55.638;37.356;2024-02-04T13:06:53;7.78;;;3.67;;
58238;SDS011;44037;55.638;37.356;2024-02-04T13:09:21;2.90;;;1.35;;
58238;SDS011;44037;55.638;37.356;2024-02-04T13:11:50;6.65;;;2.65;;
58238;SDS011;44037;55.638;37.356;2024-02-04T13:14:17;1.42;;;0.75;;
58238;SDS011;44037;55.638;37.356;2024-02-04T13:16:44;2.08;;;0.80;;
58238;SDS011;44037;55.638;37.356;2024-02-04T13:19:11;2.28;;;0.65;;
58238;SDS011;44037;55.638;37.356;2024-02-04T13:21:39;1.08;;;0.43;;
58238;SDS011;44037;55.638;37.356;2024-02-04T13:24:06;2.30;;;0.73;;
58238;SDS011;44037;55.638;37.356;2024-02-04T13:26:33;3.78;;;0.70;;
58238;SDS011;44037;55.638;37.356;2024-02-04T13:29:02;3.13;;;0.88;;
58238;SDS011;44037;55.638;37.356;2024-02-04T13:31:29;0.95;;;0.50;;
58238;SDS011;44037;55.638;37.356;2024-02-04T13:33:57;1.05;;;0.60;;
58238;SDS011;44037;55.638;37.356;2024-02-04T13:36:29;3.65;;;1.10;;
58238;SDS011;44037;55.638;37.356;2024-02-04T13:38:57;7.63;;;1.65;;
58238;SDS011;44037;55.638;37.356;2024-02-04T13:41:24;3.50;;;1.20;;
58238;SDS011;44037;55.638;37.356;2024-02-04T13:43:52;1.35;;;0.60;;
58238;SDS011;44037;55.638;37.356;2024-02-04T13:46:21;3.33;;;0.70;;
58238;SDS011;44037;55.638;37.356;2024-02-04T13:48:49;3.17;;;0.90;;
58238;SDS011;44037;55.638;37.356;2024-02-04T13:51:16;0.95;;;0.60;;
58238;SDS011;44037;55.638;37.356;2024-02-04T13:53:44;7.40;;;1.23;;
58238;SDS011;44037;55.638;37.356;2024-02-04T13:56:11;5.32;;;1.38;;
58238;SDS011;44037;55.638;37.356;2024-02-04T13:58:39;4.53;;;0.70;;
58238;SDS011;44037;55.638;37.356;2024-02-04T14:01:06;3.17;;;0.73;;
58238;SDS011;44037;55.638;37.356;2024-02-04T14:03:37;5.90;;;0.85;;
58238;SDS011;44037;55.638;37.356;2024-02-04T14:06:04;2.38;;;0.82;;
58238;SDS011;44037;55.638;37.356;2024-02-04T14:08:31;2.80;;;1.10;;
58238;SDS011;44037;55.638;37.356;2024-02-04T14:10:59;6.72;;;1.30;;
58238;SDS011;44037;55.638;37.356;2024-02-04T14:13:27;3.42;;;1.23;;
58238;SDS011;44037;55.638;37.356;2024-02-04T14:15:54;4.60;;;1.65;;
58238;SDS011;44037;55.638;37.356;2024-02-04T14:18:22;4.10;;;1.48;;
58238;SDS011;44037;55.638;37.356;2024-02-04T14:20:52;3.47;;;1.38;;
58238;SDS011;44037;55.638;37.356;2024-02-04T14:23:22;7.35;;;1.45;;
58238;SDS011;44037;55.638;37.356;2024-02-04T14:25:53;4.47;;;1.52;;
58238;SDS011;44037;55.638;37.356;2024-02-04T14:28:20;3.58;;;1.30;;
58238;SDS011;44037;55.638;37.356;2024-02-04T14:30:47;5.38;;;1.60;;
58238;SDS011;44037;55.638;37.356;2024-02-04T14:33:15;3.72;;;1.30;;
58238;SDS011;44037;55.638;37.356;2024-02-04T14:35:42;6.15;;;1.58;;
58238;SDS011;44037;55.638;37.356;2024-02-04T14:38:11;5.70;;;2.45;;
58238;SDS011;44037;55.638;37.356;2024-02-04T14:40:39;3.67;;;1.67;;